Time;durP1;ratioP1;P1;durP2;ratioP2;P2;SDS_P1;SDS_P2;PMS_P1;PMS_P2;Temp;Humidity;BMP_temperature;BMP_pressure;BME280_temperature;BME280_humidity;BME280_pressure;Samples;Min_cycle;Max_cycle;Signal;HPM_P1;HPM_P2
2023/04/30 00:01:33;;;;;;;10.75;4.35;;;;;;;;;;5025942;22;20049;-68
2023/04/30 00:03:58;;;;;;;8.00;4.38;;;;;;;;;;5008703;28;20084;-69
2023/04/30 00:06:24;;;;;;;6.97;3.92;;;;;;;;;;5008676;28;20104;-70
2023/04/30 00:08:49;;;;;;;9.43;5.30;;;;;;;;;;5006535;28;20018;-70
2023/04/30 00:11:14;;;;;;;11.02;5.07;;;;;;;;;;4998761;28;20021;-70
2023/04/30 00:13:41;;;;;;;15.70;6.43;;;;;;;;;;5007908;28;20026;-69
2023/04/30 00:16:07;;;;;;;11.10;4.97;;;;;;;;;;5011234;28;20403;-68
2023/04/30 00:18:32;;;;;;;13.23;5.35;;;;;;;;;;5008606;28;20030;-67
2023/04/30 00:20:57;;;;;;;21.38;6.53;;;;;;;;;;5008570;28;20048;-70
2023/04/30 00:23:22;;;;;;;9.73;4.68;;;;;;;;;;5001613;28;20368;-70
2023/04/30 00:25:48;;;;;;;8.50;4.43;;;;;;;;;;5006978;28;20021;-67
2023/04/30 00:28:13;;;;;;;9.85;4.45;;;;;;;;;;5007295;28;20022;-70
2023/04/30 00:30:38;;;;;;;8.40;4.00;;;;;;;;;;5014047;28;20025;-69
2023/04/30 00:33:04;;;;;;;10.02;4.25;;;;;;;;;;5012669;28;20026;-70
2023/04/30 00:35:29;;;;;;;12.13;3.70;;;;;;;;;;5007775;28;20049;-67
2023/04/30 00:37:54;;;;;;;8.10;3.38;;;;;;;;;;5007567;28;20029;-69
2023/04/30 00:40:20;;;;;;;5.70;2.78;;;;;;;;;;4994713;28;20080;-67
2023/04/30 00:42:45;;;;;;;10.15;3.40;;;;;;;;;;5002041;28;20026;-72
2023/04/30 00:45:10;;;;;;;12.02;3.15;;;;;;;;;;5013844;28;20020;-68
2023/04/30 00:47:36;;;;;;;7.05;3.30;;;;;;;;;;5012393;28;20030;-69
2023/04/30 00:50:01;;;;;;;8.40;3.45;;;;;;;;;;5015360;28;20497;-66
2023/04/30 00:52:26;;;;;;;8.90;3.03;;;;;;;;;;5013513;28;20026;-68
2023/04/30 00:54:53;;;;;;;11.32;3.88;;;;;;;;;;5011549;28;20014;-68
2023/04/30 00:57:19;;;;;;;5.55;3.22;;;;;;;;;;5004785;28;20105;-66
2023/04/30 00:59:44;;;;;;;8.85;3.65;;;;;;;;;;5007353;28;20392;-67
2023/04/30 01:02:10;;;;;;;8.55;3.85;;;;;;;;;;5014579;28;20519;-67
2023/04/30 01:04:35;;;;;;;7.18;3.50;;;;;;;;;;5017949;28;20029;-69
2023/04/30 01:07:01;;;;;;;10.32;3.97;;;;;;;;;;5017199;28;20038;-67
2023/04/30 01:09:27;;;;;;;9.05;3.78;;;;;;;;;;5011041;28;20033;-69
2023/04/30 01:12:09;;;;;;;8.13;3.30;;;;;;;;;;5010894;28;20093;-68
2023/04/30 01:14:37;;;;;;;11.75;3.67;;;;;;;;;;5022020;28;20025;-67
2023/04/30 01:17:12;;;;;;;13.27;4.00;;;;;;;;;;5020975;28;20041;-68
2023/04/30 01:19:41;;;;;;;8.75;4.45;;;;;;;;;;5021059;28;20226;-70
2023/04/30 01:22:10;;;;;;;8.43;3.60;;;;;;;;;;5013003;28;20033;-69
2023/04/30 01:24:49;;;;;;;9.57;3.95;;;;;;;;;;5003343;28;20109;-68
2023/04/30 01:27:32;;;;;;;10.32;4.07;;;;;;;;;;4998604;28;20093;-64
2023/04/30 01:29:58;;;;;;;11.80;3.38;;;;;;;;;;5010911;28;20148;-68
2023/04/30 01:32:23;;;;;;;7.50;2.80;;;;;;;;;;5016142;28;20120;-69
2023/04/30 01:34:48;;;;;;;7.25;3.15;;;;;;;;;;5012887;28;20053;-66
2023/04/30 01:37:14;;;;;;;7.53;2.97;;;;;;;;;;5021960;28;20061;-68
2023/04/30 01:39:58;;;;;;;7.97;3.10;;;;;;;;;;5024100;28;20045;-68
2023/04/30 01:42:35;;;;;;;10.55;3.35;;;;;;;;;;5021941;28;20029;-69
2023/04/30 01:45:11;;;;;;;6.20;3.13;;;;;;;;;;5010503;28;20122;-68
2023/04/30 01:47:48;;;;;;;8.15;3.08;;;;;;;;;;5021449;28;20087;-70
2023/04/30 01:50:26;;;;;;;8.93;2.78;;;;;;;;;;5019659;28;20676;-68
2023/04/30 01:52:52;;;;;;;7.78;2.85;;;;;;;;;;5013760;28;20029;-69
2023/04/30 01:55:26;;;;;;;9.88;3.05;;;;;;;;;;5010827;28;20021;-70
2023/04/30 01:57:55;;;;;;;7.03;2.85;;;;;;;;;;5007523;28;20013;-69
2023/04/30 02:00:20;;;;;;;;;;;;;;;;;;5007401;28;20425;-68
2023/04/30 02:02:45;;;;;;;7.80;3.05;;;;;;;;;;5016768;28;20284;-66
2023/04/30 02:05:10;;;;;;;6.07;2.85;;;;;;;;;;5021310;28;20474;-68
2023/04/30 02:07:39;;;;;;;5.30;2.95;;;;;;;;;;5016497;28;20470;-66
2023/04/30 02:10:06;;;;;;;8.77;3.45;;;;;;;;;;5012263;28;20026;-67
2023/04/30 02:12:31;;;;;;;7.75;3.10;;;;;;;;;;5023190;28;20077;-70
2023/04/30 02:14:56;;;;;;;8.00;2.95;;;;;;;;;;5022070;28;20041;-67
2023/04/30 02:17:21;;;;;;;5.90;3.20;;;;;;;;;;5013076;28;20074;-69
2023/04/30 02:19:47;;;;;;;11.68;3.72;;;;;;;;;;5021742;28;20096;-65
2023/04/30 02:22:12;;;;;;;7.78;3.65;;;;;;;;;;5016309;28;20151;-70
2023/04/30 02:24:37;;;;;;;7.50;3.13;;;;;;;;;;5003921;28;20472;-66
2023/04/30 02:27:03;;;;;;;6.88;3.95;;;;;;;;;;5014715;28;20116;-71
2023/04/30 02:29:28;;;;;;;9.68;3.35;;;;;;;;;;5018243;28;20117;-70
2023/04/30 02:31:53;;;;;;;10.60;3.10;;;;;;;;;;5012406;28;20035;-69
2023/04/30 02:34:18;;;;;;;15.27;3.97;;;;;;;;;;5029412;28;20079;-67
2023/04/30 02:36:44;;;;;;;12.77;3.97;;;;;;;;;;5016151;28;20041;-67
2023/04/30 02:39:09;;;;;;;9.32;4.43;;;;;;;;;;5018058;28;20017;-69
2023/04/30 02:41:35;;;;;;;12.07;4.13;;;;;;;;;;5022503;28;20025;-67
2023/04/30 02:44:00;;;;;;;12.43;4.05;;;;;;;;;;5009313;28;20026;-69
2023/04/30 02:46:25;;;;;;;14.60;4.32;;;;;;;;;;5009465;28;20022;-67
2023/04/30 02:48:51;;;;;;;11.27;4.00;;;;;;;;;;5016339;28;20057;-71
2023/04/30 02:51:16;;;;;;;7.78;3.70;;;;;;;;;;5009241;28;20033;-68
2023/04/30 02:53:41;;;;;;;8.55;3.70;;;;;;;;;;5020205;28;20410;-69
2023/04/30 02:56:07;;;;;;;12.07;3.85;;;;;;;;;;5015490;28;20055;-68
2023/04/30 02:58:32;;;;;;;11.65;4.20;;;;;;;;;;5011051;28;20097;-66
2023/04/30 03:00:58;;;;;;;7.93;3.50;;;;;;;;;;5006883;28;20473;-68
2023/04/30 03:03:23;;;;;;;8.20;4.00;;;;;;;;;;5011129;28;20036;-67
2023/04/30 03:05:48;;;;;;;11.73;3.45;;;;;;;;;;5022369;28;20018;-68
2023/04/30 03:08:14;;;;;;;9.43;3.17;;;;;;;;;;5006176;28;20025;-68
2023/04/30 03:10:39;;;;;;;12.25;3.85;;;;;;;;;;5010942;28;20163;-69
2023/04/30 03:13:05;;;;;;;9.35;3.47;;;;;;;;;;5018339;28;20030;-66
2023/04/30 03:15:31;;;;;;;12.70;4.13;;;;;;;;;;5013069;28;20049;-70
2023/04/30 03:17:56;;;;;;;8.15;3.63;;;;;;;;;;5027785;28;20098;-69
2023/04/30 03:20:22;;;;;;;12.38;3.92;;;;;;;;;;5011869;28;20085;-68
2023/04/30 03:22:47;;;;;;;8.07;3.67;;;;;;;;;;5007564;28;20485;-68
2023/04/30 03:25:12;;;;;;;13.60;3.80;;;;;;;;;;5008457;28;20022;-68
2023/04/30 03:27:37;;;;;;;9.57;4.00;;;;;;;;;;5008939;28;20029;-70
2023/04/30 03:30:03;;;;;;;10.90;3.72;;;;;;;;;;5022682;28;20387;-68
2023/04/30 03:32:28;;;;;;;8.25;4.00;;;;;;;;;;5012678;28;20133;-69
2023/04/30 03:34:53;;;;;;;11.10;4.13;;;;;;;;;;5012575;28;20026;-68
2023/04/30 03:37:18;;;;;;;11.55;4.53;;;;;;;;;;5009013;28;20021;-67
2023/04/30 03:39:44;;;;;;;14.45;4.82;;;;;;;;;;5009091;28;20529;-65
2023/04/30 03:42:09;;;;;;;16.13;4.43;;;;;;;;;;5007218;28;20045;-69
2023/04/30 03:44:34;;;;;;;7.80;4.13;;;;;;;;;;5008377;28;20033;-69
2023/04/30 03:47:00;;;;;;;10.52;4.35;;;;;;;;;;5008462;28;20062;-70
2023/04/30 03:49:25;;;;;;;10.73;3.78;;;;;;;;;;5014359;28;20029;-69
2023/04/30 03:51:50;;;;;;;11.90;4.60;;;;;;;;;;5019622;28;20022;-67
2023/04/30 03:54:15;;;;;;;12.88;4.70;;;;;;;;;;5021213;28;20018;-68
2023/04/30 03:56:41;;;;;;;8.43;4.07;;;;;;;;;;5006155;28;20121;-67
2023/04/30 03:59:06;;;;;;;13.93;4.60;;;;;;;;;;5008241;28;20022;-71
2023/04/30 04:01:32;;;;;;;13.70;5.03;;;;;;;;;;5008639;28;20028;-68
2023/04/30 04:03:57;;;;;;;11.05;4.15;;;;;;;;;;5008388;28;20111;-69
2023/04/30 04:06:22;;;;;;;9.45;3.70;;;;;;;;;;5008572;28;20100;-68
2023/04/30 04:08:48;;;;;;;9.30;4.57;;;;;;;;;;5015208;28;20422;-69
2023/04/30 04:11:13;;;;;;;10.73;4.55;;;;;;;;;;5008418;28;20105;-69
2023/04/30 04:13:38;;;;;;;10.68;4.25;;;;;;;;;;5008089;28;20097;-69
2023/04/30 04:16:04;;;;;;;13.60;4.03;;;;;;;;;;5008634;28;20452;-69
2023/04/30 04:18:29;;;;;;;16.80;4.40;;;;;;;;;;5019773;28;20036;-67
2023/04/30 04:20:55;;;;;;;12.88;4.65;;;;;;;;;;5016978;28;20487;-69
2023/04/30 04:23:20;;;;;;;15.15;4.18;;;;;;;;;;5012471;28;20029;-70
2023/04/30 04:25:48;;;;;;;8.73;4.15;;;;;;;;;;4998818;28;20026;-69
2023/04/30 04:28:13;;;;;;;10.48;4.30;;;;;;;;;;5006473;28;20120;-69
2023/04/30 04:30:39;;;;;;;9.75;4.20;;;;;;;;;;5012368;28;20210;-66
2023/04/30 04:33:04;;;;;;;11.07;4.47;;;;;;;;;;5015621;28;20049;-68
2023/04/30 04:35:30;;;;;;;11.73;3.70;;;;;;;;;;5011911;28;20028;-70
2023/04/30 04:37:55;;;;;;;12.98;4.20;;;;;;;;;;5012209;28;20391;-70
2023/04/30 04:40:21;;;;;;;13.52;4.80;;;;;;;;;;5012022;28;20064;-68
2023/04/30 04:42:48;;;;;;;11.80;4.38;;;;;;;;;;5013326;28;20033;-68
2023/04/30 04:45:15;;;;;;;9.32;3.97;;;;;;;;;;5023924;28;20446;-69
2023/04/30 04:47:40;;;;;;;11.73;4.38;;;;;;;;;;5041116;28;20032;-67
2023/04/30 04:50:05;;;;;;;16.33;4.68;;;;;;;;;;5024345;28;20025;-69
2023/04/30 04:52:31;;;;;;;17.42;4.25;;;;;;;;;;5025108;28;20108;-66
2023/04/30 04:54:56;;;;;;;19.00;4.50;;;;;;;;;;4999953;28;20026;-68
2023/04/30 04:57:21;;;;;;;15.07;3.72;;;;;;;;;;5003186;28;20065;-69
2023/04/30 04:59:46;;;;;;;9.73;3.13;;;;;;;;;;4999936;28;20084;-69
2023/04/30 05:02:12;;;;;;;11.10;4.25;;;;;;;;;;5004043;28;20022;-69
2023/04/30 05:04:37;;;;;;;18.35;3.90;;;;;;;;;;5011908;28;20018;-66
2023/04/30 05:07:02;;;;;;;8.43;3.65;;;;;;;;;;5001955;28;20090;-70
2023/04/30 05:09:27;;;;;;;8.18;3.97;;;;;;;;;;5007174;28;20050;-68
2023/04/30 05:11:53;;;;;;;12.40;3.78;;;;;;;;;;5005228;28;20053;-70
2023/04/30 05:14:19;;;;;;;8.77;3.40;;;;;;;;;;5008340;28;20060;-69
2023/04/30 05:16:45;;;;;;;18.95;4.55;;;;;;;;;;5000686;28;20500;-69
2023/04/30 05:19:10;;;;;;;13.32;3.83;;;;;;;;;;5010437;28;20053;-66
2023/04/30 05:21:35;;;;;;;8.32;3.58;;;;;;;;;;5014937;28;20386;-70
2023/04/30 05:24:01;;;;;;;8.20;3.30;;;;;;;;;;5020765;28;20337;-68
2023/04/30 05:26:26;;;;;;;6.85;3.00;;;;;;;;;;5009965;28;20112;-67
2023/04/30 05:28:52;;;;;;;13.55;3.60;;;;;;;;;;5006487;28;20080;-66
2023/04/30 05:31:17;;;;;;;9.23;3.72;;;;;;;;;;5009752;28;20466;-67
2023/04/30 05:33:42;;;;;;;18.33;4.18;;;;;;;;;;5016008;28;20033;-69
2023/04/30 05:36:08;;;;;;;9.13;3.13;;;;;;;;;;5017786;28;20167;-68
2023/04/30 05:38:34;;;;;;;8.98;3.00;;;;;;;;;;5010079;28;20022;-70
2023/04/30 05:40:59;;;;;;;14.65;2.95;;;;;;;;;;5024639;28;20032;-66
2023/04/30 05:43:24;;;;;;;13.88;4.05;;;;;;;;;;5012870;28;20472;-69
2023/04/30 05:45:49;;;;;;;10.25;2.97;;;;;;;;;;5015149;28;20094;-68
2023/04/30 05:48:15;;;;;;;7.93;2.97;;;;;;;;;;5010590;28;20073;-67
2023/04/30 05:50:40;;;;;;;8.45;2.88;;;;;;;;;;5016832;28;20108;-68
2023/04/30 05:53:05;;;;;;;6.18;2.75;;;;;;;;;;5019085;28;20056;-67
2023/04/30 05:55:30;;;;;;;12.82;3.50;;;;;;;;;;5011946;28;20022;-69
2023/04/30 05:57:56;;;;;;;6.53;2.60;;;;;;;;;;5013925;28;20046;-69
2023/04/30 06:00:21;;;;;;;9.88;3.10;;;;;;;;;;5003764;28;20021;-70
2023/04/30 06:02:46;;;;;;;10.40;2.67;;;;;;;;;;5032682;22;20045;-63
2023/04/30 06:05:12;;;;;;;10.50;3.35;;;;;;;;;;5030307;28;20089;-65
2023/04/30 06:07:37;;;;;;;9.60;3.25;;;;;;;;;;5026125;28;20415;-63
2023/04/30 06:10:02;;;;;;;7.93;2.78;;;;;;;;;;5016516;28;20111;-64
2023/04/30 06:12:28;;;;;;;12.38;3.35;;;;;;;;;;5025474;28;20100;-64
2023/04/30 06:14:53;;;;;;;10.70;3.00;;;;;;;;;;5011261;28;20021;-63
2023/04/30 06:17:18;;;;;;;12.27;3.13;;;;;;;;;;5010018;28;20045;-65
2023/04/30 06:19:43;;;;;;;9.13;3.08;;;;;;;;;;5013805;28;20093;-64
2023/04/30 06:22:09;;;;;;;14.77;3.38;;;;;;;;;;5013046;28;20026;-64
2023/04/30 06:24:34;;;;;;;11.90;3.08;;;;;;;;;;5014249;28;20100;-64
2023/04/30 06:27:00;;;;;;;12.30;2.78;;;;;;;;;;5027849;28;20057;-64
2023/04/30 06:29:25;;;;;;;14.05;3.45;;;;;;;;;;5014021;28;20105;-62
2023/04/30 06:31:51;;;;;;;14.77;3.72;;;;;;;;;;5018861;28;20033;-64
2023/04/30 06:34:16;;;;;;;9.60;3.20;;;;;;;;;;5006927;28;20029;-65
2023/04/30 06:36:41;;;;;;;13.68;3.35;;;;;;;;;;5011660;28;20526;-65
2023/04/30 06:39:06;;;;;;;16.05;3.63;;;;;;;;;;5010972;28;20555;-64
2023/04/30 06:41:32;;;;;;;13.00;3.78;;;;;;;;;;5013786;28;20074;-64
2023/04/30 06:43:57;;;;;;;12.85;3.60;;;;;;;;;;5008185;28;20037;-64
2023/04/30 06:46:22;;;;;;;13.52;3.03;;;;;;;;;;5011484;28;20034;-63
2023/04/30 06:48:47;;;;;;;12.18;3.50;;;;;;;;;;5009723;28;20028;-65
2023/04/30 06:51:12;;;;;;;14.70;3.35;;;;;;;;;;5020591;28;20021;-66
2023/04/30 06:53:38;;;;;;;14.75;3.28;;;;;;;;;;5015218;28;20064;-64
2023/04/30 06:56:03;;;;;;;8.45;2.63;;;;;;;;;;5010799;28;20076;-65
2023/04/30 06:58:28;;;;;;;10.32;3.28;;;;;;;;;;5010468;28;20014;-64
2023/04/30 07:00:53;;;;;;;14.82;3.53;;;;;;;;;;5011875;28;20045;-62
2023/04/30 07:03:19;;;;;;;14.15;3.17;;;;;;;;;;5009579;28;20056;-65
2023/04/30 07:05:44;;;;;;;17.30;3.47;;;;;;;;;;5010240;28;20034;-64
2023/04/30 07:08:09;;;;;;;13.48;2.83;;;;;;;;;;5016862;28;20026;-66
2023/04/30 07:10:35;;;;;;;10.75;2.45;;;;;;;;;;5012406;28;20029;-65
2023/04/30 07:13:00;;;;;;;9.23;3.72;;;;;;;;;;5020842;28;20017;-65
2023/04/30 07:15:25;;;;;;;9.00;3.30;;;;;;;;;;5013198;28;20026;-65
2023/04/30 07:17:50;;;;;;;12.20;3.22;;;;;;;;;;5018407;28;20029;-63
2023/04/30 07:20:16;;;;;;;8.95;3.03;;;;;;;;;;5010117;28;20014;-65
2023/04/30 07:22:44;;;;;;;10.70;2.95;;;;;;;;;;5007574;28;22516;-65
2023/04/30 07:25:12;;;;;;;12.65;3.50;;;;;;;;;;5008830;28;20029;-65
2023/04/30 07:27:39;;;;;;;15.48;3.35;;;;;;;;;;5011138;28;20026;-64
2023/04/30 07:30:05;;;;;;;14.15;3.40;;;;;;;;;;5012379;28;20048;-64
2023/04/30 07:32:30;;;;;;;12.50;3.20;;;;;;;;;;5024723;28;20022;-65
2023/04/30 07:34:55;;;;;;;9.43;2.78;;;;;;;;;;5001309;28;20464;-63
2023/04/30 07:37:21;;;;;;;8.45;2.70;;;;;;;;;;5002646;28;20040;-64
2023/04/30 07:39:46;;;;;;;12.20;3.38;;;;;;;;;;5009757;28;20029;-64
2023/04/30 07:42:11;;;;;;;10.27;3.20;;;;;;;;;;5010019;28;20037;-65
2023/04/30 07:44:37;;;;;;;12.43;3.40;;;;;;;;;;5006034;28;20029;-65
2023/04/30 07:47:02;;;;;;;13.80;2.90;;;;;;;;;;5010526;28;20029;-63
2023/04/30 07:49:27;;;;;;;7.35;2.75;;;;;;;;;;5009694;28;20021;-66
2023/04/30 07:51:53;;;;;;;10.35;3.17;;;;;;;;;;5009683;28;20022;-66
2023/04/30 07:54:18;;;;;;;9.07;3.20;;;;;;;;;;5006116;28;20029;-65
2023/04/30 07:56:43;;;;;;;16.90;3.50;;;;;;;;;;5009194;28;20455;-64
2023/04/30 07:59:09;;;;;;;12.65;3.40;;;;;;;;;;5009298;28;20100;-66
2023/04/30 08:01:35;;;;;;;14.23;3.85;;;;;;;;;;5013250;28;20046;-65
2023/04/30 08:04:00;;;;;;;11.70;2.63;;;;;;;;;;5010105;28;20333;-66
2023/04/30 08:06:28;;;;;;;11.95;3.50;;;;;;;;;;5012789;28;20025;-66
2023/04/30 08:08:54;;;;;;;16.98;3.40;;;;;;;;;;5002589;28;20030;-64
2023/04/30 08:11:20;;;;;;;12.40;3.20;;;;;;;;;;5007487;28;20036;-61
2023/04/30 08:13:45;;;;;;;12.60;3.03;;;;;;;;;;5019053;28;20776;-65
2023/04/30 08:16:11;;;;;;;17.23;3.20;;;;;;;;;;5010297;28;20045;-65
2023/04/30 08:18:37;;;;;;;8.77;2.78;;;;;;;;;;5017703;28;20027;-65
2023/04/30 08:21:03;;;;;;;8.43;2.90;;;;;;;;;;5019981;28;20021;-64
2023/04/30 08:23:28;;;;;;;9.50;2.88;;;;;;;;;;5011796;28;20033;-63
2023/04/30 08:25:54;;;;;;;6.05;2.13;;;;;;;;;;5010586;28;20057;-65
2023/04/30 08:28:20;;;;;;;10.38;2.75;;;;;;;;;;5010066;28;20121;-64
2023/04/30 08:30:45;;;;;;;9.05;2.58;;;;;;;;;;5010202;28;20109;-66
2023/04/30 08:33:10;;;;;;;7.15;2.47;;;;;;;;;;5014016;28;20026;-64
2023/04/30 08:35:36;;;;;;;5.43;2.05;;;;;;;;;;5009265;28;20025;-65
2023/04/30 08:38:01;;;;;;;7.13;2.10;;;;;;;;;;5015352;28;20208;-65
2023/04/30 08:40:26;;;;;;;10.75;2.08;;;;;;;;;;5012699;28;20534;-65
2023/04/30 08:43:05;;;;;;;4.65;1.92;;;;;;;;;;5012212;28;20535;-64
2023/04/30 08:45:34;;;;;;;9.07;2.22;;;;;;;;;;5018122;28;20100;-64
2023/04/30 08:47:59;;;;;;;5.50;2.15;;;;;;;;;;5013266;28;20525;-64
2023/04/30 08:50:25;;;;;;;5.68;2.33;;;;;;;;;;5009786;28;20647;-65
2023/04/30 08:52:50;;;;;;;10.35;2.42;;;;;;;;;;5019009;28;20037;-64
2023/04/30 08:55:16;;;;;;;7.47;2.42;;;;;;;;;;5015629;28;20017;-64
2023/04/30 08:57:41;;;;;;;6.15;1.90;;;;;;;;;;5012193;28;20021;-66
2023/04/30 09:00:06;;;;;;;8.40;2.28;;;;;;;;;;5006880;28;20104;-66
2023/04/30 09:02:32;;;;;;;6.57;2.15;;;;;;;;;;5015130;28;20395;-63
2023/04/30 09:04:57;;;;;;;3.72;2.17;;;;;;;;;;5008174;28;20093;-65
2023/04/30 09:07:24;;;;;;;7.35;2.13;;;;;;;;;;5019974;28;20039;-65
2023/04/30 09:09:51;;;;;;;4.82;1.83;;;;;;;;;;5011193;28;20055;-62
2023/04/30 09:12:18;;;;;;;10.77;1.70;;;;;;;;;;5017351;28;20067;-66
2023/04/30 09:14:58;;;;;;;5.75;1.90;;;;;;;;;;5017157;28;20057;-65
2023/04/30 09:17:24;;;;;;;5.50;2.20;;;;;;;;;;5018449;28;20026;-63
2023/04/30 09:19:50;;;;;;;8.95;2.30;;;;;;;;;;5000808;28;20025;-66
2023/04/30 09:22:20;;;;;;;6.15;1.88;;;;;;;;;;5017170;28;20467;-66
2023/04/30 09:24:49;;;;;;;12.45;2.60;;;;;;;;;;5009152;28;20682;-64
2023/04/30 09:27:16;;;;;;;10.35;2.20;;;;;;;;;;5007868;28;20505;-62
2023/04/30 09:29:41;;;;;;;8.73;1.67;;;;;;;;;;5015702;28;20064;-63
2023/04/30 09:32:10;;;;;;;6.57;1.90;;;;;;;;;;5012038;28;20045;-66
2023/04/30 09:34:35;;;;;;;9.70;2.15;;;;;;;;;;5011982;28;20052;-64
2023/04/30 09:37:01;;;;;;;3.95;1.90;;;;;;;;;;5017891;28;20048;-65
2023/04/30 09:39:26;;;;;;;4.70;1.52;;;;;;;;;;5019895;28;20041;-66
2023/04/30 09:41:51;;;;;;;13.65;2.28;;;;;;;;;;5012712;28;20018;-63
2023/04/30 09:44:27;;;;;;;4.80;1.73;;;;;;;;;;5012979;28;20018;-65
2023/04/30 09:46:52;;;;;;;11.48;1.90;;;;;;;;;;5011007;28;20022;-66
2023/04/30 09:49:18;;;;;;;11.00;2.47;;;;;;;;;;5016902;28;20052;-64
2023/04/30 09:51:53;;;;;;;11.23;2.13;;;;;;;;;;5018473;28;20092;-62
2023/04/30 09:54:20;;;;;;;10.45;2.17;;;;;;;;;;5011050;28;20478;-65
2023/04/30 09:56:45;;;;;;;6.85;2.28;;;;;;;;;;5011149;28;20101;-67
2023/04/30 09:59:11;;;;;;;3.25;1.50;;;;;;;;;;5010538;28;20085;-64
2023/04/30 10:01:37;;;;;;;5.13;1.25;;;;;;;;;;5012637;28;20045;-61
2023/04/30 10:04:03;;;;;;;2.95;1.30;;;;;;;;;;5015785;28;20056;-62
2023/04/30 10:06:34;;;;;;;5.53;2.67;;;;;;;;;;5011071;28;20471;-64
2023/04/30 10:09:01;;;;;;;6.45;1.48;;;;;;;;;;5015952;28;20105;-64
2023/04/30 10:11:27;;;;;;;4.05;1.60;;;;;;;;;;5020025;28;20032;-63
2023/04/30 10:13:55;;;;;;;3.67;1.40;;;;;;;;;;5005600;28;20372;-64
2023/04/30 10:16:39;;;;;;;5.90;1.50;;;;;;;;;;5002965;28;20097;-63
2023/04/30 10:19:18;;;;;;;8.73;2.28;;;;;;;;;;5012457;28;20510;-64
2023/04/30 10:21:44;;;;;;;7.13;1.75;;;;;;;;;;5010630;28;20013;-64
2023/04/30 10:24:11;;;;;;;6.55;2.25;;;;;;;;;;5010497;28;20419;-61
2023/04/30 10:26:37;;;;;;;5.47;1.80;;;;;;;;;;5010447;28;20084;-64
2023/04/30 10:29:02;;;;;;;5.30;2.03;;;;;;;;;;5010852;28;20025;-64
2023/04/30 10:31:29;;;;;;;8.50;1.98;;;;;;;;;;5010406;28;20022;-65
2023/04/30 10:34:13;;;;;;;8.55;2.22;;;;;;;;;;5010389;28;20045;-62
2023/04/30 10:36:40;;;;;;;4.78;1.80;;;;;;;;;;5011160;28;20084;-64
2023/04/30 10:39:05;;;;;;;5.38;1.75;;;;;;;;;;5010945;28;20138;-61
2023/04/30 10:41:31;;;;;;;11.10;1.77;;;;;;;;;;4996262;28;20041;-64
2023/04/30 10:44:00;;;;;;;8.98;2.17;;;;;;;;;;5011325;28;20030;-65
2023/04/30 10:46:26;;;;;;;7.63;2.20;;;;;;;;;;5011083;28;20050;-64
2023/04/30 10:48:53;;;;;;;7.45;1.75;;;;;;;;;;5010679;28;20046;-64
2023/04/30 10:51:18;;;;;;;7.05;2.28;;;;;;;;;;5010953;28;20021;-64
2023/04/30 10:53:44;;;;;;;6.15;2.00;;;;;;;;;;5009945;28;20483;-64
2023/04/30 10:56:09;;;;;;;11.32;2.17;;;;;;;;;;5010428;28;20101;-63
2023/04/30 10:58:37;;;;;;;8.00;2.15;;;;;;;;;;5009875;28;20022;-65
2023/04/30 11:01:04;;;;;;;6.60;1.95;;;;;;;;;;5009812;28;20061;-62
2023/04/30 11:03:31;;;;;;;5.68;1.70;;;;;;;;;;5024385;28;20052;-62
2023/04/30 11:05:57;;;;;;;6.00;2.00;;;;;;;;;;5010325;28;20041;-65
2023/04/30 11:08:32;;;;;;;7.32;2.10;;;;;;;;;;5006534;28;20388;-62
2023/04/30 11:11:00;;;;;;;5.75;2.10;;;;;;;;;;5007247;28;20022;-65
2023/04/30 11:13:25;;;;;;;4.60;1.73;;;;;;;;;;5010034;28;20468;-63
2023/04/30 11:15:50;;;;;;;7.35;2.03;;;;;;;;;;5009846;28;20054;-64
2023/04/30 11:18:17;;;;;;;5.47;1.63;;;;;;;;;;5009847;28;20021;-60
2023/04/30 11:20:48;;;;;;;5.90;2.05;;;;;;;;;;5010010;28;20490;-65
2023/04/30 11:23:14;;;;;;;8.88;2.00;;;;;;;;;;5009016;28;20026;-65
2023/04/30 11:25:43;;;;;;;9.82;2.10;;;;;;;;;;5010252;28;20022;-63
2023/04/30 11:28:08;;;;;;;;;;;;;;;;;;5010391;28;20133;-63
2023/04/30 11:30:34;;;;;;;3.33;1.60;;;;;;;;;;5009629;28;19988;-65
2023/04/30 11:32:59;;;;;;;7.60;2.10;;;;;;;;;;5009649;28;20109;-64
2023/04/30 11:35:24;;;;;;;3.55;1.65;;;;;;;;;;5008601;28;20064;-63
2023/04/30 11:37:53;;;;;;;12.27;2.25;;;;;;;;;;5009782;28;20048;-63
2023/04/30 11:40:19;;;;;;;;;;;;;;;;;;5011836;28;20017;-63
2023/04/30 11:42:45;;;;;;;7.50;1.95;;;;;;;;;;5011087;28;19997;-63
2023/04/30 11:45:11;;;;;;;9.38;1.80;;;;;;;;;;5010925;28;20025;-63
2023/04/30 11:47:40;;;;;;;2.90;1.42;;;;;;;;;;5009104;28;20042;-63
2023/04/30 11:50:06;;;;;;;7.07;1.73;;;;;;;;;;5010440;28;20533;-63
2023/04/30 11:52:32;;;;;;;6.38;1.65;;;;;;;;;;5008646;28;20026;-64
2023/04/30 11:54:59;;;;;;;5.25;1.70;;;;;;;;;;5009442;28;20021;-61
2023/04/30 11:57:24;;;;;;;8.63;1.50;;;;;;;;;;5009537;28;20328;-64
2023/04/30 11:59:49;;;;;;;6.57;2.17;;;;;;;;;;5009069;28;20596;-65
2023/04/30 12:02:15;;;;;;;5.90;2.00;;;;;;;;;;5010610;28;20037;-58
2023/04/30 12:04:42;;;;;;;8.45;1.90;;;;;;;;;;5009141;28;20017;-64
2023/04/30 12:07:08;;;;;;;6.55;2.20;;;;;;;;;;5009955;28;20022;-64
2023/04/30 12:09:50;;;;;;;9.18;2.10;;;;;;;;;;5008978;28;20036;-64
2023/04/30 12:12:25;;;;;;;7.68;2.13;;;;;;;;;;5009480;28;20021;-63
2023/04/30 12:14:50;;;;;;;10.98;2.42;;;;;;;;;;5009347;28;20100;-63
2023/04/30 12:17:29;;;;;;;2.90;1.70;;;;;;;;;;5009253;28;20419;-64
2023/04/30 12:19:54;;;;;;;9.45;1.80;;;;;;;;;;5009412;28;20030;-64
2023/04/30 12:22:20;;;;;;;6.70;2.17;;;;;;;;;;5009120;28;20546;-62
2023/04/30 12:24:45;;;;;;;7.20;1.98;;;;;;;;;;5009267;28;20414;-64
2023/04/30 12:27:11;;;;;;;8.32;2.35;;;;;;;;;;5009257;28;20029;-66
2023/04/30 12:29:39;;;;;;;7.60;2.13;;;;;;;;;;5009340;28;20025;-64
2023/04/30 12:32:04;;;;;;;13.35;2.33;;;;;;;;;;5009024;28;20096;-64
2023/04/30 12:34:31;;;;;;;10.80;2.20;;;;;;;;;;5009210;28;20105;-63
2023/04/30 12:36:57;;;;;;;9.90;1.92;;;;;;;;;;4995036;28;20018;-65
2023/04/30 12:39:22;;;;;;;13.30;1.60;;;;;;;;;;5008863;28;20072;-63
2023/04/30 12:41:48;;;;;;;5.72;1.60;;;;;;;;;;5010574;28;20022;-65
2023/04/30 12:44:23;;;;;;;8.48;2.15;;;;;;;;;;5012614;28;20026;-66
2023/04/30 12:46:50;;;;;;;5.75;2.05;;;;;;;;;;5012730;28;20022;-65
2023/04/30 12:49:22;;;;;;;7.15;2.15;;;;;;;;;;5013069;28;20557;-65
2023/04/30 12:51:47;;;;;;;14.10;2.67;;;;;;;;;;5013035;28;20017;-65
2023/04/30 12:54:13;;;;;;;8.00;2.72;;;;;;;;;;5012105;28;20041;-63
2023/04/30 12:56:39;;;;;;;8.40;2.50;;;;;;;;;;5012613;28;20105;-66
2023/04/30 12:59:13;;;;;;;6.40;2.58;;;;;;;;;;5012398;28;20018;-64
2023/04/30 13:01:43;;;;;;;15.52;2.28;;;;;;;;;;5014363;28;20014;-65
2023/04/30 13:04:09;;;;;;;6.70;2.05;;;;;;;;;;5011559;28;20057;-64
2023/04/30 13:06:34;;;;;;;7.25;2.20;;;;;;;;;;5012508;28;20049;-65
2023/04/30 13:08:59;;;;;;;3.92;1.60;;;;;;;;;;5012199;28;20076;-66
2023/04/30 13:11:25;;;;;;;5.55;2.00;;;;;;;;;;5012388;28;20105;-62
2023/04/30 13:13:50;;;;;;;6.72;2.10;;;;;;;;;;5011756;28;20539;-65
2023/04/30 13:16:16;;;;;;;5.53;1.85;;;;;;;;;;5012106;28;20033;-63
2023/04/30 13:18:42;;;;;;;7.30;2.30;;;;;;;;;;5012366;28;20365;-63
2023/04/30 13:21:07;;;;;;;10.82;2.30;;;;;;;;;;5012368;28;20018;-65
2023/04/30 13:23:32;;;;;;;5.40;1.85;;;;;;;;;;5002451;28;20093;-65
2023/04/30 13:25:57;;;;;;;15.18;2.13;;;;;;;;;;5011592;28;20021;-66
2023/04/30 13:28:23;;;;;;;8.18;2.30;;;;;;;;;;5011631;28;20529;-64
2023/04/30 13:30:48;;;;;;;12.35;1.98;;;;;;;;;;5012087;28;20465;-63
2023/04/30 13:33:13;;;;;;;10.18;2.38;;;;;;;;;;5011466;28;20030;-64
2023/04/30 13:35:39;;;;;;;6.95;2.20;;;;;;;;;;5010172;28;20018;-64
2023/04/30 13:38:04;;;;;;;10.52;2.05;;;;;;;;;;5012019;28;20037;-64
2023/04/30 13:40:30;;;;;;;11.02;1.92;;;;;;;;;;5011412;28;20545;-64
2023/04/30 13:42:55;;;;;;;11.77;1.98;;;;;;;;;;5011435;28;20475;-65
2023/04/30 13:45:20;;;;;;;6.47;1.83;;;;;;;;;;5011215;28;20014;-64
2023/04/30 13:47:46;;;;;;;8.63;2.20;;;;;;;;;;5011286;28;20036;-64
2023/04/30 13:50:11;;;;;;;8.57;1.85;;;;;;;;;;5011469;28;20024;-63
2023/04/30 13:52:37;;;;;;;8.10;2.95;;;;;;;;;;5011448;28;20017;-64
2023/04/30 13:55:03;;;;;;;5.75;2.00;;;;;;;;;;5010334;28;20415;-64
2023/04/30 13:57:31;;;;;;;10.45;1.65;;;;;;;;;;5011092;28;20072;-63
2023/04/30 13:59:56;;;;;;;5.50;1.75;;;;;;;;;;5010682;28;20102;-62
2023/04/30 14:02:22;;;;;;;5.32;1.80;;;;;;;;;;5011124;28;20466;-63
2023/04/30 14:04:47;;;;;;;6.13;2.05;;;;;;;;;;5011031;28;20022;-64
2023/04/30 14:07:12;;;;;;;8.52;1.92;;;;;;;;;;5013373;28;20037;-61
2023/04/30 14:09:38;;;;;;;4.47;1.73;;;;;;;;;;5010804;28;20396;-63
2023/04/30 14:12:03;;;;;;;6.30;1.70;;;;;;;;;;5011323;28;20022;-64
2023/04/30 14:14:29;;;;;;;5.68;2.10;;;;;;;;;;5010886;28;20483;-63
2023/04/30 14:16:54;;;;;;;7.40;2.13;;;;;;;;;;5011173;28;20505;-65
2023/04/30 14:19:21;;;;;;;4.40;1.60;;;;;;;;;;5011224;28;20018;-62
2023/04/30 14:21:46;;;;;;;7.68;2.10;;;;;;;;;;5027247;28;20266;-64
2023/04/30 14:24:15;;;;;;;6.95;2.15;;;;;;;;;;5000765;28;20022;-64
2023/04/30 14:26:40;;;;;;;;;;;;;;;;;;5011906;28;20113;-63
2023/04/30 14:29:06;;;;;;;5.80;1.80;;;;;;;;;;5011150;28;20005;-67
2023/04/30 14:31:31;;;;;;;6.18;1.92;;;;;;;;;;4998493;28;20610;-64
2023/04/30 14:33:56;;;;;;;5.97;2.67;;;;;;;;;;5009241;28;20476;-65